sensor_id;sensor_type;location;lat;lon;timestamp;P1;P2;P0
43479;PMS5003;29067;35.492;-97.520;2023-04-06T00:01:38;1;1;
43479;PMS5003;29067;35.492;-97.520;2023-04-06T00:04:06;1;1;
43479;PMS5003;29067;35.492;-97.520;2023-04-06T00:06:34;4;4;
43479;PMS5003;29067;35.492;-97.520;2023-04-06T00:09:02;2;2;
43479;PMS5003;29067;35.492;-97.520;2023-04-06T00:11:30;5;5;
43479;PMS5003;29067;35.492;-97.520;2023-04-06T00:13:58;5;5;
43479;PMS5003;29067;35.492;-97.520;2023-04-06T00:16:26;2;2;
43479;PMS5003;29067;35.492;-97.520;2023-04-06T00:18:54;1;1;
43479;PMS5003;29067;35.492;-97.520;2023-04-06T00:21:22;1;1;
43479;PMS5003;29067;35.492;-97.520;2023-04-06T00:23:50;3;3;
43479;PMS5003;29067;35.492;-97.520;2023-04-06T00:26:18;0;0;
43479;PMS5003;29067;35.492;-97.520;2023-04-06T00:28:46;0;0;
43479;PMS5003;29067;35.492;-97.520;2023-04-06T00:31:14;5;5;
43479;PMS5003;29067;35.492;-97.520;2023-04-06T00:33:42;2;2;
43479;PMS5003;29067;35.492;-97.520;2023-04-06T00:36:10;2;1;
43479;PMS5003;29067;35.492;-97.520;2023-04-06T00:38:43;1;1;
43479;PMS5003;29067;35.492;-97.520;2023-04-06T00:41:12;2;2;
43479;PMS5003;29067;35.492;-97.520;2023-04-06T00:43:40;3;3;
43479;PMS5003;29067;35.492;-97.520;2023-04-06T00:46:08;2;2;
43479;PMS5003;29067;35.492;-97.520;2023-04-06T00:48:36;1;1;
43479;PMS5003;29067;35.492;-97.520;2023-04-06T00:51:04;1;1;
43479;PMS5003;29067;35.492;-97.520;2023-04-06T00:53:32;0;0;
43479;PMS5003;29067;35.492;-97.520;2023-04-06T00:56:00;2;2;
43479;PMS5003;29067;35.492;-97.520;2023-04-06T00:58:28;2;2;
43479;PMS5003;29067;35.492;-97.520;2023-04-06T01:00:57;1;1;
43479;PMS5003;29067;35.492;-97.520;2023-04-06T01:03:25;3;1;
43479;PMS5003;29067;35.492;-97.520;2023-04-06T01:05:53;2;2;
43479;PMS5003;29067;35.492;-97.520;2023-04-06T01:08:21;3;2;
43479;PMS5003;29067;35.492;-97.520;2023-04-06T01:10:55;4;4;
43479;PMS5003;29067;35.492;-97.520;2023-04-06T01:13:22;4;4;
43479;PMS5003;29067;35.492;-97.520;2023-04-06T01:15:50;11;9;
43479;PMS5003;29067;35.492;-97.520;2023-04-06T01:18:19;4;3;
43479;PMS5003;29067;35.492;-97.520;2023-04-06T01:20:53;1;1;
43479;PMS5003;29067;35.492;-97.520;2023-04-06T01:23:21;1;1;
43479;PMS5003;29067;35.492;-97.520;2023-04-06T01:25:49;1;1;
43479;PMS5003;29067;35.492;-97.520;2023-04-06T01:28:17;2;1;
43479;PMS5003;29067;35.492;-97.520;2023-04-06T01:30:50;2;2;
43479;PMS5003;29067;35.492;-97.520;2023-04-06T01:33:18;3;2;
43479;PMS5003;29067;35.492;-97.520;2023-04-06T01:35:46;3;3;
43479;PMS5003;29067;35.492;-97.520;2023-04-06T01:38:14;4;4;
43479;PMS5003;29067;35.492;-97.520;2023-04-06T01:40:43;6;6;
43479;PMS5003;29067;35.492;-97.520;2023-04-06T01:43:10;15;15;
43479;PMS5003;29067;35.492;-97.520;2023-04-06T01:45:38;47;47;
43479;PMS5003;29067;35.492;-97.520;2023-04-06T01:48:07;15;15;
43479;PMS5003;29067;35.492;-97.520;2023-04-06T01:50:35;19;19;
43479;PMS5003;29067;35.492;-97.520;2023-04-06T01:53:03;0;0;
43479;PMS5003;29067;35.492;-97.520;2023-04-06T01:55:31;1;1;
43479;PMS5003;29067;35.492;-97.520;2023-04-06T01:57:58;2;2;
43479;PMS5003;29067;35.492;-97.520;2023-04-06T02:00:27;4;3;
43479;PMS5003;29067;35.492;-97.520;2023-04-06T02:02:55;2;2;
43479;PMS5003;29067;35.492;-97.520;2023-04-06T02:05:23;4;4;
43479;PMS5003;29067;35.492;-97.520;2023-04-06T02:08:02;3;3;
43479;PMS5003;29067;35.492;-97.520;2023-04-06T02:10:30;3;3;
43479;PMS5003;29067;35.492;-97.520;2023-04-06T02:13:00;2;2;
43479;PMS5003;29067;35.492;-97.520;2023-04-06T02:15:28;2;2;
43479;PMS5003;29067;35.492;-97.520;2023-04-06T02:17:56;1;1;
43479;PMS5003;29067;35.492;-97.520;2023-04-06T02:20:26;2;2;
43479;PMS5003;29067;35.492;-97.520;2023-04-06T02:22:59;3;2;
43479;PMS5003;29067;35.492;-97.520;2023-04-06T02:25:33;5;4;
43479;PMS5003;29067;35.492;-97.520;2023-04-06T02:28:01;4;4;
43479;PMS5003;29067;35.492;-97.520;2023-04-06T02:30:29;2;2;
43479;PMS5003;29067;35.492;-97.520;2023-04-06T02:32:57;1;1;
43479;PMS5003;29067;35.492;-97.520;2023-04-06T02:35:25;1;1;
43479;PMS5003;29067;35.492;-97.520;2023-04-06T02:37:54;1;1;
43479;PMS5003;29067;35.492;-97.520;2023-04-06T02:40:22;2;2;
43479;PMS5003;29067;35.492;-97.520;2023-04-06T02:42:50;1;1;
43479;PMS5003;29067;35.492;-97.520;2023-04-06T02:45:18;2;2;
43479;PMS5003;29067;35.492;-97.520;2023-04-06T02:47:46;3;2;
43479;PMS5003;29067;35.492;-97.520;2023-04-06T02:50:14;2;2;
43479;PMS5003;29067;35.492;-97.520;2023-04-06T02:52:42;3;3;
43479;PMS5003;29067;35.492;-97.520;2023-04-06T02:55:10;3;3;
43479;PMS5003;29067;35.492;-97.520;2023-04-06T02:57:37;1;1;
43479;PMS5003;29067;35.492;-97.520;2023-04-06T03:00:06;2;2;
43479;PMS5003;29067;35.492;-97.520;2023-04-06T03:02:35;2;1;
43479;PMS5003;29067;35.492;-97.520;2023-04-06T03:05:03;1;1;
43479;PMS5003;29067;35.492;-97.520;2023-04-06T03:07:31;1;1;
43479;PMS5003;29067;35.492;-97.520;2023-04-06T03:09:59;0;0;
43479;PMS5003;29067;35.492;-97.520;2023-04-06T03:12:27;1;1;
43479;PMS5003;29067;35.492;-97.520;2023-04-06T03:14:55;0;0;
43479;PMS5003;29067;35.492;-97.520;2023-04-06T03:17:23;3;1;
43479;PMS5003;29067;35.492;-97.520;2023-04-06T03:19:51;1;1;
43479;PMS5003;29067;35.492;-97.520;2023-04-06T03:22:19;1;0;
43479;PMS5003;29067;35.492;-97.520;2023-04-06T03:24:47;0;0;
43479;PMS5003;29067;35.492;-97.520;2023-04-06T03:27:15;1;1;
43479;PMS5003;29067;35.492;-97.520;2023-04-06T03:29:43;1;1;
43479;PMS5003;29067;35.492;-97.520;2023-04-06T03:32:11;0;0;
43479;PMS5003;29067;35.492;-97.520;2023-04-06T03:34:39;0;0;
43479;PMS5003;29067;35.492;-97.520;2023-04-06T03:37:07;1;0;
43479;PMS5003;29067;35.492;-97.520;2023-04-06T03:39:35;0;0;
43479;PMS5003;29067;35.492;-97.520;2023-04-06T03:42:03;1;1;
43479;PMS5003;29067;35.492;-97.520;2023-04-06T03:44:30;1;1;
43479;PMS5003;29067;35.492;-97.520;2023-04-06T03:46:58;1;1;
43479;PMS5003;29067;35.492;-97.520;2023-04-06T03:49:26;0;0;
43479;PMS5003;29067;35.492;-97.520;2023-04-06T03:51:55;1;0;
43479;PMS5003;29067;35.492;-97.520;2023-04-06T03:54:24;0;0;
43479;PMS5003;29067;35.492;-97.520;2023-04-06T03:56:52;0;0;
43479;PMS5003;29067;35.492;-97.520;2023-04-06T03:59:19;1;1;
43479;PMS5003;29067;35.492;-97.520;2023-04-06T04:01:47;0;0;
43479;PMS5003;29067;35.492;-97.520;2023-04-06T04:04:16;0;0;
43479;PMS5003;29067;35.492;-97.520;2023-04-06T04:06:43;0;0;
43479;PMS5003;29067;35.492;-97.520;2023-04-06T04:09:11;0;0;
43479;PMS5003;29067;35.492;-97.520;2023-04-06T04:11:39;1;1;
43479;PMS5003;29067;35.492;-97.520;2023-04-06T04:14:07;0;0;
43479;PMS5003;29067;35.492;-97.520;2023-04-06T04:16:35;1;1;
43479;PMS5003;29067;35.492;-97.520;2023-04-06T04:19:03;1;0;
43479;PMS5003;29067;35.492;-97.520;2023-04-06T04:21:31;1;0;
43479;PMS5003;29067;35.492;-97.520;2023-04-06T04:23:58;0;0;
43479;PMS5003;29067;35.492;-97.520;2023-04-06T04:26:26;0;0;
43479;PMS5003;29067;35.492;-97.520;2023-04-06T04:28:54;0;0;
43479;PMS5003;29067;35.492;-97.520;2023-04-06T04:31:22;1;1;
43479;PMS5003;29067;35.492;-97.520;2023-04-06T04:33:50;2;1;
43479;PMS5003;29067;35.492;-97.520;2023-04-06T04:36:18;0;0;
43479;PMS5003;29067;35.492;-97.520;2023-04-06T04:38:46;0;0;
43479;PMS5003;29067;35.492;-97.520;2023-04-06T04:41:13;0;0;
43479;PMS5003;29067;35.492;-97.520;2023-04-06T04:43:41;0;0;
43479;PMS5003;29067;35.492;-97.520;2023-04-06T04:46:09;0;0;
43479;PMS5003;29067;35.492;-97.520;2023-04-06T04:48:38;1;0;
43479;PMS5003;29067;35.492;-97.520;2023-04-06T04:51:06;0;0;
43479;PMS5003;29067;35.492;-97.520;2023-04-06T04:53:34;0;0;
43479;PMS5003;29067;35.492;-97.520;2023-04-06T04:56:02;0;0;
43479;PMS5003;29067;35.492;-97.520;2023-04-06T05:14:44;0;0;
43479;PMS5003;29067;35.492;-97.520;2023-04-06T05:17:12;0;0;
43479;PMS5003;29067;35.492;-97.520;2023-04-06T05:19:39;1;1;
43479;PMS5003;29067;35.492;-97.520;2023-04-06T05:22:07;0;0;
43479;PMS5003;29067;35.492;-97.520;2023-04-06T05:24:35;0;0;
43479;PMS5003;29067;35.492;-97.520;2023-04-06T05:27:03;1;0;
43479;PMS5003;29067;35.492;-97.520;2023-04-06T05:29:32;0;0;
43479;PMS5003;29067;35.492;-97.520;2023-04-06T05:32:01;0;0;
43479;PMS5003;29067;35.492;-97.520;2023-04-06T05:34:29;1;1;
43479;PMS5003;29067;35.492;-97.520;2023-04-06T05:36:56;0;0;
43479;PMS5003;29067;35.492;-97.520;2023-04-06T05:39:24;1;1;
43479;PMS5003;29067;35.492;-97.520;2023-04-06T05:41:52;0;0;
43479;PMS5003;29067;35.492;-97.520;2023-04-06T05:44:20;1;0;
43479;PMS5003;29067;35.492;-97.520;2023-04-06T05:46:48;1;0;
43479;PMS5003;29067;35.492;-97.520;2023-04-06T05:49:16;1;1;
43479;PMS5003;29067;35.492;-97.520;2023-04-06T05:51:44;1;1;
43479;PMS5003;29067;35.492;-97.520;2023-04-06T05:54:12;1;1;
43479;PMS5003;29067;35.492;-97.520;2023-04-06T05:56:40;1;1;
43479;PMS5003;29067;35.492;-97.520;2023-04-06T05:59:08;1;1;
43479;PMS5003;29067;35.492;-97.520;2023-04-06T06:01:36;0;0;
43479;PMS5003;29067;35.492;-97.520;2023-04-06T06:04:04;1;1;
43479;PMS5003;29067;35.492;-97.520;2023-04-06T06:06:32;1;0;
43479;PMS5003;29067;35.492;-97.520;2023-04-06T06:09:00;1;1;
43479;PMS5003;29067;35.492;-97.520;2023-04-06T06:11:27;0;0;
43479;PMS5003;29067;35.492;-97.520;2023-04-06T06:13:55;0;0;
43479;PMS5003;29067;35.492;-97.520;2023-04-06T06:16:24;1;1;
43479;PMS5003;29067;35.492;-97.520;2023-04-06T06:18:52;1;1;
43479;PMS5003;29067;35.492;-97.520;2023-04-06T06:21:20;6;6;
43479;PMS5003;29067;35.492;-97.520;2023-04-06T06:23:48;26;25;
43479;PMS5003;29067;35.492;-97.520;2023-04-06T06:26:16;30;30;
43479;PMS5003;29067;35.492;-97.520;2023-04-06T06:28:44;24;24;
43479;PMS5003;29067;35.492;-97.520;2023-04-06T06:31:12;11;11;
43479;PMS5003;29067;35.492;-97.520;2023-04-06T06:33:40;26;25;
43479;PMS5003;29067;35.492;-97.520;2023-04-06T06:36:08;45;45;
43479;PMS5003;29067;35.492;-97.520;2023-04-06T06:38:37;18;18;
43479;PMS5003;29067;35.492;-97.520;2023-04-06T06:41:04;15;13;
43479;PMS5003;29067;35.492;-97.520;2023-04-06T06:43:32;51;51;
43479;PMS5003;29067;35.492;-97.520;2023-04-06T06:46:01;18;16;
43479;PMS5003;29067;35.492;-97.520;2023-04-06T06:48:30;38;37;
43479;PMS5003;29067;35.492;-97.520;2023-04-06T06:50:57;56;56;
43479;PMS5003;29067;35.492;-97.520;2023-04-06T06:53:26;80;80;
43479;PMS5003;29067;35.492;-97.520;2023-04-06T06:55:54;70;70;
43479;PMS5003;29067;35.492;-97.520;2023-04-06T06:58:22;89;89;
43479;PMS5003;29067;35.492;-97.520;2023-04-06T07:00:50;5;5;
43479;PMS5003;29067;35.492;-97.520;2023-04-06T07:03:22;4;4;
43479;PMS5003;29067;35.492;-97.520;2023-04-06T07:05:50;4;4;
43479;PMS5003;29067;35.492;-97.520;2023-04-06T07:08:18;3;3;
43479;PMS5003;29067;35.492;-97.520;2023-04-06T07:42:29;1;1;
43479;PMS5003;29067;35.492;-97.520;2023-04-06T07:44:56;1;1;
43479;PMS5003;29067;35.492;-97.520;2023-04-06T07:47:23;0;0;
43479;PMS5003;29067;35.492;-97.520;2023-04-06T07:49:50;0;0;
43479;PMS5003;29067;35.492;-97.520;2023-04-06T07:52:18;0;0;
43479;PMS5003;29067;35.492;-97.520;2023-04-06T07:54:46;1;1;
43479;PMS5003;29067;35.492;-97.520;2023-04-06T07:57:14;0;0;
43479;PMS5003;29067;35.492;-97.520;2023-04-06T07:59:42;0;0;
43479;PMS5003;29067;35.492;-97.520;2023-04-06T08:02:10;1;1;
43479;PMS5003;29067;35.492;-97.520;2023-04-06T08:04:38;3;2;
43479;PMS5003;29067;35.492;-97.520;2023-04-06T08:07:06;1;1;
43479;PMS5003;29067;35.492;-97.520;2023-04-06T08:09:34;1;0;
43479;PMS5003;29067;35.492;-97.520;2023-04-06T08:12:02;0;0;
43479;PMS5003;29067;35.492;-97.520;2023-04-06T08:14:30;0;0;
43479;PMS5003;29067;35.492;-97.520;2023-04-06T08:16:58;0;0;
43479;PMS5003;29067;35.492;-97.520;2023-04-06T08:19:26;0;0;
43479;PMS5003;29067;35.492;-97.520;2023-04-06T08:21:54;1;1;
43479;PMS5003;29067;35.492;-97.520;2023-04-06T08:24:22;1;0;
43479;PMS5003;29067;35.492;-97.520;2023-04-06T08:26:50;0;0;
43479;PMS5003;29067;35.492;-97.520;2023-04-06T08:29:18;1;1;
43479;PMS5003;29067;35.492;-97.520;2023-04-06T08:31:46;0;0;
43479;PMS5003;29067;35.492;-97.520;2023-04-06T08:34:14;1;0;
43479;PMS5003;29067;35.492;-97.520;2023-04-06T08:36:42;2;1;
43479;PMS5003;29067;35.492;-97.520;2023-04-06T08:39:10;0;0;
43479;PMS5003;29067;35.492;-97.520;2023-04-06T08:41:38;1;1;
43479;PMS5003;29067;35.492;-97.520;2023-04-06T08:44:10;0;0;
43479;PMS5003;29067;35.492;-97.520;2023-04-06T08:46:38;0;0;
43479;PMS5003;29067;35.492;-97.520;2023-04-06T08:49:07;1;0;
43479;PMS5003;29067;35.492;-97.520;2023-04-06T08:51:36;1;1;
43479;PMS5003;29067;35.492;-97.520;2023-04-06T08:54:04;0;0;
43479;PMS5003;29067;35.492;-97.520;2023-04-06T08:56:32;1;1;
43479;PMS5003;29067;35.492;-97.520;2023-04-06T08:59:04;2;2;
43479;PMS5003;29067;35.492;-97.520;2023-04-06T09:01:33;3;2;
43479;PMS5003;29067;35.492;-97.520;2023-04-06T09:04:06;2;2;
43479;PMS5003;29067;35.492;-97.520;2023-04-06T09:06:36;3;3;
43479;PMS5003;29067;35.492;-97.520;2023-04-06T09:09:04;4;3;
43479;PMS5003;29067;35.492;-97.520;2023-04-06T09:11:42;4;4;
43479;PMS5003;29067;35.492;-97.520;2023-04-06T09:14:11;4;4;
43479;PMS5003;29067;35.492;-97.520;2023-04-06T09:16:39;8;4;
43479;PMS5003;29067;35.492;-97.520;2023-04-06T09:19:08;6;4;
43479;PMS5003;29067;35.492;-97.520;2023-04-06T09:21:36;6;4;
43479;PMS5003;29067;35.492;-97.520;2023-04-06T09:24:06;6;6;
43479;PMS5003;29067;35.492;-97.520;2023-04-06T09:26:44;7;6;
43479;PMS5003;29067;35.492;-97.520;2023-04-06T09:29:22;7;5;
43479;PMS5003;29067;35.492;-97.520;2023-04-06T09:31:50;6;6;
43479;PMS5003;29067;35.492;-97.520;2023-04-06T09:34:21;9;7;
43479;PMS5003;29067;35.492;-97.520;2023-04-06T09:36:50;6;6;
43479;PMS5003;29067;35.492;-97.520;2023-04-06T09:39:20;6;4;
43479;PMS5003;29067;35.492;-97.520;2023-04-06T09:41:49;6;6;
43479;PMS5003;29067;35.492;-97.520;2023-04-06T09:44:19;7;7;
43479;PMS5003;29067;35.492;-97.520;2023-04-06T09:46:47;7;6;
43479;PMS5003;29067;35.492;-97.520;2023-04-06T09:49:15;4;4;
43479;PMS5003;29067;35.492;-97.520;2023-04-06T09:51:45;7;7;
43479;PMS5003;29067;35.492;-97.520;2023-04-06T09:54:18;8;6;
43479;PMS5003;29067;35.492;-97.520;2023-04-06T09:56:50;6;6;
43479;PMS5003;29067;35.492;-97.520;2023-04-06T09:59:25;7;6;
43479;PMS5003;29067;35.492;-97.520;2023-04-06T10:01:58;7;7;
43479;PMS5003;29067;35.492;-97.520;2023-04-06T10:04:29;6;6;
43479;PMS5003;29067;35.492;-97.520;2023-04-06T10:07:03;4;4;
43479;PMS5003;29067;35.492;-97.520;2023-04-06T10:09:33;9;8;
43479;PMS5003;29067;35.492;-97.520;2023-04-06T10:12:04;6;4;
43479;PMS5003;29067;35.492;-97.520;2023-04-06T10:14:33;7;6;
43479;PMS5003;29067;35.492;-97.520;2023-04-06T10:17:02;7;7;
43479;PMS5003;29067;35.492;-97.520;2023-04-06T10:19:34;7;7;
43479;PMS5003;29067;35.492;-97.520;2023-04-06T10:22:08;7;6;
43479;PMS5003;29067;35.492;-97.520;2023-04-06T10:24:40;8;6;
43479;PMS5003;29067;35.492;-97.520;2023-04-06T10:27:08;6;6;
43479;PMS5003;29067;35.492;-97.520;2023-04-06T10:29:47;8;7;
43479;PMS5003;29067;35.492;-97.520;2023-04-06T10:32:17;9;9;
43479;PMS5003;29067;35.492;-97.520;2023-04-06T10:34:45;8;7;
43479;PMS5003;29067;35.492;-97.520;2023-04-06T10:37:13;7;7;
43479;PMS5003;29067;35.492;-97.520;2023-04-06T10:39:52;7;7;
43479;PMS5003;29067;35.492;-97.520;2023-04-06T10:42:23;8;7;
43479;PMS5003;29067;35.492;-97.520;2023-04-06T10:44:52;7;7;
43479;PMS5003;29067;35.492;-97.520;2023-04-06T10:47:21;9;9;
43479;PMS5003;29067;35.492;-97.520;2023-04-06T10:49:49;8;8;
43479;PMS5003;29067;35.492;-97.520;2023-04-06T10:52:17;8;8;
43479;PMS5003;29067;35.492;-97.520;2023-04-06T10:54:45;11;11;
43479;PMS5003;29067;35.492;-97.520;2023-04-06T10:57:14;10;9;
43479;PMS5003;29067;35.492;-97.520;2023-04-06T10:59:42;12;9;
43479;PMS5003;29067;35.492;-97.520;2023-04-06T11:03:00;9;8;
43479;PMS5003;29067;35.492;-97.520;2023-04-06T11:05:29;8;8;
43479;PMS5003;29067;35.492;-97.520;2023-04-06T11:08:02;8;8;
43479;PMS5003;29067;35.492;-97.520;2023-04-06T11:10:30;10;10;
43479;PMS5003;29067;35.492;-97.520;2023-04-06T11:12:58;7;7;
43479;PMS5003;29067;35.492;-97.520;2023-04-06T11:15:26;10;8;
43479;PMS5003;29067;35.492;-97.520;2023-04-06T11:18:03;8;8;
43479;PMS5003;29067;35.492;-97.520;2023-04-06T11:20:31;7;7;
43479;PMS5003;29067;35.492;-97.520;2023-04-06T11:22:59;9;8;
43479;PMS5003;29067;35.492;-97.520;2023-04-06T11:25:27;11;9;
43479;PMS5003;29067;35.492;-97.520;2023-04-06T11:27:55;10;7;
43479;PMS5003;29067;35.492;-97.520;2023-04-06T11:30:23;7;7;
43479;PMS5003;29067;35.492;-97.520;2023-04-06T11:32:51;10;10;
43479;PMS5003;29067;35.492;-97.520;2023-04-06T11:35:26;7;7;
43479;PMS5003;29067;35.492;-97.520;2023-04-06T11:37:58;10;8;
43479;PMS5003;29067;35.492;-97.520;2023-04-06T11:40:29;7;7;
43479;PMS5003;29067;35.492;-97.520;2023-04-06T11:42:57;10;8;
43479;PMS5003;29067;35.492;-97.520;2023-04-06T11:45:26;8;8;
43479;PMS5003;29067;35.492;-97.520;2023-04-06T11:47:59;8;8;
43479;PMS5003;29067;35.492;-97.520;2023-04-06T11:50:32;12;11;
43479;PMS5003;29067;35.492;-97.520;2023-04-06T11:53:01;9;8;
43479;PMS5003;29067;35.492;-97.520;2023-04-06T11:55:36;8;8;
43479;PMS5003;29067;35.492;-97.520;2023-04-06T11:58:05;12;10;
43479;PMS5003;29067;35.492;-97.520;2023-04-06T12:00:33;11;10;
43479;PMS5003;29067;35.492;-97.520;2023-04-06T12:03:01;10;7;
43479;PMS5003;29067;35.492;-97.520;2023-04-06T12:05:29;9;9;
43479;PMS5003;29067;35.492;-97.520;2023-04-06T12:07:59;11;8;
43479;PMS5003;29067;35.492;-97.520;2023-04-06T12:10:27;8;8;
43479;PMS5003;29067;35.492;-97.520;2023-04-06T12:12:55;9;9;
43479;PMS5003;29067;35.492;-97.520;2023-04-06T12:15:23;10;10;
43479;PMS5003;29067;35.492;-97.520;2023-04-06T12:17:52;13;12;
43479;PMS5003;29067;35.492;-97.520;2023-04-06T12:20:20;11;11;
43479;PMS5003;29067;35.492;-97.520;2023-04-06T12:22:47;13;11;
43479;PMS5003;29067;35.492;-97.520;2023-04-06T12:25:16;11;11;
43479;PMS5003;29067;35.492;-97.520;2023-04-06T12:27:43;13;12;
43479;PMS5003;29067;35.492;-97.520;2023-04-06T12:30:12;14;11;
43479;PMS5003;29067;35.492;-97.520;2023-04-06T12:32:40;13;12;
43479;PMS5003;29067;35.492;-97.520;2023-04-06T12:35:17;14;13;
43479;PMS5003;29067;35.492;-97.520;2023-04-06T12:37:46;12;11;
43479;PMS5003;29067;35.492;-97.520;2023-04-06T12:40:15;12;11;
43479;PMS5003;29067;35.492;-97.520;2023-04-06T12:42:43;11;11;
43479;PMS5003;29067;35.492;-97.520;2023-04-06T12:45:11;13;11;
43479;PMS5003;29067;35.492;-97.520;2023-04-06T12:47:39;9;8;
43479;PMS5003;29067;35.492;-97.520;2023-04-06T12:50:07;9;8;
43479;PMS5003;29067;35.492;-97.520;2023-04-06T12:52:36;9;9;
43479;PMS5003;29067;35.492;-97.520;2023-04-06T12:55:04;9;9;
43479;PMS5003;29067;35.492;-97.520;2023-04-06T12:57:38;12;9;
43479;PMS5003;29067;35.492;-97.520;2023-04-06T13:00:06;14;12;
43479;PMS5003;29067;35.492;-97.520;2023-04-06T13:02:35;9;9;
43479;PMS5003;29067;35.492;-97.520;2023-04-06T13:05:03;12;12;
43479;PMS5003;29067;35.492;-97.520;2023-04-06T13:07:31;12;11;
43479;PMS5003;29067;35.492;-97.520;2023-04-06T13:09:59;12;12;
43479;PMS5003;29067;35.492;-97.520;2023-04-06T13:12:28;13;12;
43479;PMS5003;29067;35.492;-97.520;2023-04-06T13:15:04;15;11;
43479;PMS5003;29067;35.492;-97.520;2023-04-06T13:17:38;11;9;
43479;PMS5003;29067;35.492;-97.520;2023-04-06T13:20:06;10;10;
43479;PMS5003;29067;35.492;-97.520;2023-04-06T13:22:35;11;9;
43479;PMS5003;29067;35.492;-97.520;2023-04-06T13:25:03;8;8;
43479;PMS5003;29067;35.492;-97.520;2023-04-06T13:27:32;12;10;
43479;PMS5003;29067;35.492;-97.520;2023-04-06T13:30:00;9;9;
43479;PMS5003;29067;35.492;-97.520;2023-04-06T13:32:28;18;12;
43479;PMS5003;29067;35.492;-97.520;2023-04-06T13:34:57;12;12;
43479;PMS5003;29067;35.492;-97.520;2023-04-06T13:37:24;12;10;
43479;PMS5003;29067;35.492;-97.520;2023-04-06T13:39:52;13;12;
43479;PMS5003;29067;35.492;-97.520;2023-04-06T13:42:20;13;13;
43479;PMS5003;29067;35.492;-97.520;2023-04-06T13:44:48;16;13;
43479;PMS5003;29067;35.492;-97.520;2023-04-06T13:47:16;11;11;
43479;PMS5003;29067;35.492;-97.520;2023-04-06T13:49:45;18;18;
43479;PMS5003;29067;35.492;-97.520;2023-04-06T13:52:13;80;80;
43479;PMS5003;29067;35.492;-97.520;2023-04-06T13:54:41;38;34;
43479;PMS5003;29067;35.492;-97.520;2023-04-06T13:57:09;25;25;
43479;PMS5003;29067;35.492;-97.520;2023-04-06T13:59:38;24;22;
43479;PMS5003;29067;35.492;-97.520;2023-04-06T14:02:07;16;15;
43479;PMS5003;29067;35.492;-97.520;2023-04-06T14:04:36;10;10;
43479;PMS5003;29067;35.492;-97.520;2023-04-06T14:07:05;14;12;
43479;PMS5003;29067;35.492;-97.520;2023-04-06T14:09:33;11;11;
43479;PMS5003;29067;35.492;-97.520;2023-04-06T14:12:01;14;14;
43479;PMS5003;29067;35.492;-97.520;2023-04-06T14:14:29;16;15;
43479;PMS5003;29067;35.492;-97.520;2023-04-06T14:16:58;15;15;
43479;PMS5003;29067;35.492;-97.520;2023-04-06T14:19:26;15;11;
43479;PMS5003;29067;35.492;-97.520;2023-04-06T14:21:53;13;11;
43479;PMS5003;29067;35.492;-97.520;2023-04-06T14:24:22;20;17;
43479;PMS5003;29067;35.492;-97.520;2023-04-06T14:26:51;18;17;
43479;PMS5003;29067;35.492;-97.520;2023-04-06T14:29:18;10;10;
43479;PMS5003;29067;35.492;-97.520;2023-04-06T14:31:51;11;11;
43479;PMS5003;29067;35.492;-97.520;2023-04-06T14:34:20;13;13;
43479;PMS5003;29067;35.492;-97.520;2023-04-06T14:36:47;13;12;
43479;PMS5003;29067;35.492;-97.520;2023-04-06T14:39:15;11;10;
43479;PMS5003;29067;35.492;-97.520;2023-04-06T14:41:43;12;12;
43479;PMS5003;29067;35.492;-97.520;2023-04-06T14:44:11;11;10;
43479;PMS5003;29067;35.492;-97.520;2023-04-06T14:46:44;13;12;
43479;PMS5003;29067;35.492;-97.520;2023-04-06T14:49:12;10;10;
43479;PMS5003;29067;35.492;-97.520;2023-04-06T14:51:41;11;11;
43479;PMS5003;29067;35.492;-97.520;2023-04-06T14:54:09;13;11;
43479;PMS5003;29067;35.492;-97.520;2023-04-06T14:56:38;8;8;
43479;PMS5003;29067;35.492;-97.520;2023-04-06T14:59:06;11;10;
43479;PMS5003;29067;35.492;-97.520;2023-04-06T15:01:34;14;14;
43479;PMS5003;29067;35.492;-97.520;2023-04-06T15:04:03;11;10;
43479;PMS5003;29067;35.492;-97.520;2023-04-06T15:06:31;12;8;
43479;PMS5003;29067;35.492;-97.520;2023-04-06T15:08:59;6;5;
43479;PMS5003;29067;35.492;-97.520;2023-04-06T15:11:28;9;7;
43479;PMS5003;29067;35.492;-97.520;2023-04-06T15:14:01;7;7;
43479;PMS5003;29067;35.492;-97.520;2023-04-06T15:16:29;10;9;
43479;PMS5003;29067;35.492;-97.520;2023-04-06T15:18:58;7;7;
43479;PMS5003;29067;35.492;-97.520;2023-04-06T15:21:26;9;6;
43479;PMS5003;29067;35.492;-97.520;2023-04-06T15:23:54;6;6;
43479;PMS5003;29067;35.492;-97.520;2023-04-06T15:26:22;7;7;
43479;PMS5003;29067;35.492;-97.520;2023-04-06T15:28:50;7;6;
43479;PMS5003;29067;35.492;-97.520;2023-04-06T15:31:19;7;6;
43479;PMS5003;29067;35.492;-97.520;2023-04-06T15:33:47;5;5;
43479;PMS5003;29067;35.492;-97.520;2023-04-06T15:36:22;6;5;
43479;PMS5003;29067;35.492;-97.520;2023-04-06T15:38:51;6;5;
43479;PMS5003;29067;35.492;-97.520;2023-04-06T15:41:19;5;5;
43479;PMS5003;29067;35.492;-97.520;2023-04-06T15:43:49;10;6;
43479;PMS5003;29067;35.492;-97.520;2023-04-06T15:46:17;6;6;
43479;PMS5003;29067;35.492;-97.520;2023-04-06T15:48:45;7;6;
43479;PMS5003;29067;35.492;-97.520;2023-04-06T15:51:13;10;9;
43479;PMS5003;29067;35.492;-97.520;2023-04-06T15:53:42;7;6;
43479;PMS5003;29067;35.492;-97.520;2023-04-06T15:56:10;9;7;
43479;PMS5003;29067;35.492;-97.520;2023-04-06T15:58:39;11;10;
43479;PMS5003;29067;35.492;-97.520;2023-04-06T16:01:10;7;7;
43479;PMS5003;29067;35.492;-97.520;2023-04-06T16:03:39;7;7;
43479;PMS5003;29067;35.492;-97.520;2023-04-06T16:06:07;10;9;
43479;PMS5003;29067;35.492;-97.520;2023-04-06T16:08:36;7;7;
43479;PMS5003;29067;35.492;-97.520;2023-04-06T16:11:05;11;9;
43479;PMS5003;29067;35.492;-97.520;2023-04-06T16:13:33;9;7;
43479;PMS5003;29067;35.492;-97.520;2023-04-06T16:16:01;9;7;
43479;PMS5003;29067;35.492;-97.520;2023-04-06T16:18:29;9;7;
43479;PMS5003;29067;35.492;-97.520;2023-04-06T16:20:57;7;7;
43479;PMS5003;29067;35.492;-97.520;2023-04-06T16:23:26;9;7;
43479;PMS5003;29067;35.492;-97.520;2023-04-06T16:25:54;6;5;
43479;PMS5003;29067;35.492;-97.520;2023-04-06T16:28:22;13;11;
43479;PMS5003;29067;35.492;-97.520;2023-04-06T16:30:50;7;7;
43479;PMS5003;29067;35.492;-97.520;2023-04-06T16:33:19;7;7;
43479;PMS5003;29067;35.492;-97.520;2023-04-06T16:35:47;6;6;
43479;PMS5003;29067;35.492;-97.520;2023-04-06T16:38:15;10;8;
43479;PMS5003;29067;35.492;-97.520;2023-04-06T16:40:43;5;5;
43479;PMS5003;29067;35.492;-97.520;2023-04-06T16:43:12;7;6;
43479;PMS5003;29067;35.492;-97.520;2023-04-06T16:45:40;7;7;
43479;PMS5003;29067;35.492;-97.520;2023-04-06T16:48:08;8;7;
43479;PMS5003;29067;35.492;-97.520;2023-04-06T16:50:36;8;7;
43479;PMS5003;29067;35.492;-97.520;2023-04-06T16:53:04;11;10;
43479;PMS5003;29067;35.492;-97.520;2023-04-06T16:55:34;7;6;
43479;PMS5003;29067;35.492;-97.520;2023-04-06T16:58:05;8;7;
43479;PMS5003;29067;35.492;-97.520;2023-04-06T17:00:35;7;6;
43479;PMS5003;29067;35.492;-97.520;2023-04-06T17:03:03;8;8;
43479;PMS5003;29067;35.492;-97.520;2023-04-06T17:05:31;7;6;
43479;PMS5003;29067;35.492;-97.520;2023-04-06T17:07:59;5;4;